RPA5638 KBNA-KLGA
Flight info
| Callsign | RPA5638 |
|---|---|
| Flight time | 2h 4m |
| Altitude | 33000 |
| Route | KRSTA3 OLSIE IIU Q139 CREEP Q29 WWSHR TEESY WEVEL ETG MIP4 |
| Aircraft | E170/M-SDE3GILORVW/S |
Departure
| Time | 2026-05-06 20:04 |
|---|---|
| Airport | Nashville International Airport (KBNA) |
Arrival
| Time | 2026-05-06 22:08 |
|---|---|
| Airport | LaGuardia Airport (KLGA) |
| Time | Latitude | Longitude | Altitude | Speed | Heading |
|---|---|---|---|---|---|
| 2026-05-06 19:36 | 36.13035 | -86.67029 | 608 ft | 0 kts | 123° |
| 2026-05-06 19:54 | 36.13047 | -86.67049 | 608 ft | 4 kts | 131° |
| 2026-05-06 19:54 | 36.13067 | -86.67069 | 608 ft | 4 kts | 167° |
| 2026-05-06 19:54 | 36.13084 | -86.67066 | 608 ft | 1 kts | 219° |
| 2026-05-06 19:54 | 36.13087 | -86.67063 | 608 ft | 0 kts | 219° |
| 2026-05-06 19:56 | 36.13078 | -86.67072 | 608 ft | 4 kts | 219° |
| 2026-05-06 19:56 | 36.13041 | -86.67109 | 608 ft | 9 kts | 219° |
| 2026-05-06 19:57 | 36.12976 | -86.67174 | 608 ft | 15 kts | 219° |
| 2026-05-06 19:57 | 36.12892 | -86.67256 | 608 ft | 16 kts | 210° |
| 2026-05-06 19:57 | 36.12800 | -86.67328 | 608 ft | 16 kts | 224° |
| 2026-05-06 19:57 | 36.12718 | -86.67426 | 608 ft | 17 kts | 222° |
| 2026-05-06 19:58 | 36.12615 | -86.67507 | 608 ft | 18 kts | 212° |
| 2026-05-06 19:58 | 36.12547 | -86.67574 | 608 ft | 19 kts | 226° |
| 2026-05-06 19:58 | 36.12440 | -86.67673 | 608 ft | 20 kts | 205° |
| 2026-05-06 19:58 | 36.12312 | -86.67726 | 608 ft | 20 kts | 198° |
| 2026-05-06 19:59 | 36.12179 | -86.67780 | 608 ft | 20 kts | 198° |
| 2026-05-06 19:59 | 36.12044 | -86.67836 | 608 ft | 21 kts | 199° |
| 2026-05-06 19:59 | 36.11907 | -86.67892 | 608 ft | 21 kts | 198° |
| 2026-05-06 19:59 | 36.11769 | -86.67947 | 608 ft | 21 kts | 198° |
| 2026-05-06 20:00 | 36.11630 | -86.68005 | 608 ft | 21 kts | 199° |
| 2026-05-06 20:00 | 36.11490 | -86.68063 | 608 ft | 21 kts | 198° |
| 2026-05-06 20:00 | 36.11349 | -86.68122 | 608 ft | 21 kts | 198° |
| 2026-05-06 20:00 | 36.11208 | -86.68181 | 608 ft | 21 kts | 201° |
| 2026-05-06 20:01 | 36.11096 | -86.68280 | 608 ft | 19 kts | 220° |
| 2026-05-06 20:01 | 36.10992 | -86.68378 | 608 ft | 18 kts | 206° |
| 2026-05-06 20:01 | 36.10875 | -86.68427 | 608 ft | 18 kts | 197° |
| 2026-05-06 20:01 | 36.10755 | -86.68474 | 608 ft | 18 kts | 198° |
| 2026-05-06 20:02 | 36.10632 | -86.68525 | 608 ft | 19 kts | 199° |
| 2026-05-06 20:02 | 36.10507 | -86.68575 | 608 ft | 19 kts | 197° |
| 2026-05-06 20:02 | 36.10386 | -86.68624 | 608 ft | 17 kts | 197° |
| 2026-05-06 20:02 | 36.10320 | -86.68672 | 608 ft | 8 kts | 275° |
| 2026-05-06 20:03 | 36.10337 | -86.68733 | 608 ft | 8 kts | 291° |
| 2026-05-06 20:03 | 36.10374 | -86.68772 | 608 ft | 8 kts | 1° |
| 2026-05-06 20:03 | 36.10480 | -86.68738 | 608 ft | 41 kts | 17° |
| 2026-05-06 20:03 | 36.11010 | -86.68526 | 608 ft | 113 kts | 16° |
| 2026-05-06 20:04 | 36.11928 | -86.68151 | 622 ft | 160 kts | 17° |
| 2026-05-06 20:04 | 36.13024 | -86.67727 | 1143 ft | 169 kts | 14° |
| 2026-05-06 20:04 | 36.14191 | -86.67347 | 1772 ft | 178 kts | 14° |
| 2026-05-06 20:04 | 36.15435 | -86.66795 | 2128 ft | 201 kts | 18° |
| 2026-05-06 20:05 | 36.16763 | -86.66196 | 2813 ft | 200 kts | 17° |
| 2026-05-06 20:05 | 36.18128 | -86.65593 | 3422 ft | 220 kts | 17° |
| 2026-05-06 20:05 | 36.19685 | -86.64907 | 3634 ft | 255 kts | 17° |
| 2026-05-06 20:05 | 36.21414 | -86.64122 | 4245 ft | 268 kts | 18° |
| 2026-05-06 20:06 | 36.23165 | -86.63305 | 5163 ft | 272 kts | 17° |
| 2026-05-06 20:06 | 36.24979 | -86.62462 | 5863 ft | 285 kts | 17° |
| 2026-05-06 20:06 | 36.26899 | -86.61579 | 6606 ft | 294 kts | 17° |
| 2026-05-06 20:06 | 36.28829 | -86.60686 | 7486 ft | 298 kts | 15° |
| 2026-05-06 20:07 | 36.30791 | -86.59794 | 8298 ft | 304 kts | 15° |
| 2026-05-06 20:07 | 36.32789 | -86.58894 | 9106 ft | 308 kts | 14° |
| 2026-05-06 20:07 | 36.34823 | -86.57981 | 9883 ft | 313 kts | 14° |
| 2026-05-06 20:07 | 36.36894 | -86.57051 | 10614 ft | 319 kts | 13° |
| 2026-05-06 20:08 | 36.39026 | -86.56094 | 11337 ft | 325 kts | 12° |
| 2026-05-06 20:08 | 36.41135 | -86.55138 | 12038 ft | 330 kts | 11° |
| 2026-05-06 20:08 | 36.43310 | -86.54146 | 12732 ft | 335 kts | 11° |
| 2026-05-06 20:08 | 36.45529 | -86.53134 | 13275 ft | 346 kts | 11° |
| 2026-05-06 20:09 | 36.47844 | -86.52087 | 13598 ft | 363 kts | 11° |
| 2026-05-06 20:09 | 36.50282 | -86.50978 | 14084 ft | 372 kts | 12° |
| 2026-05-06 20:09 | 36.52725 | -86.49850 | 14753 ft | 375 kts | 11° |
| 2026-05-06 20:09 | 36.55168 | -86.48712 | 15502 ft | 374 kts | 11° |
| 2026-05-06 20:10 | 36.57608 | -86.47579 | 16199 ft | 375 kts | 11° |
| 2026-05-06 20:10 | 36.60055 | -86.46392 | 16823 ft | 379 kts | 12° |
| 2026-05-06 20:10 | 36.62518 | -86.45153 | 17385 ft | 384 kts | 12° |
| 2026-05-06 20:10 | 36.65002 | -86.43888 | 17917 ft | 388 kts | 12° |
| 2026-05-06 20:11 | 36.67511 | -86.42603 | 18446 ft | 392 kts | 12° |
| 2026-05-06 20:11 | 36.70079 | -86.41284 | 18974 ft | 395 kts | 12° |
| 2026-05-06 20:11 | 36.72631 | -86.39974 | 19477 ft | 398 kts | 12° |
| 2026-05-06 20:11 | 36.75212 | -86.38672 | 19962 ft | 401 kts | 11° |
| 2026-05-06 20:12 | 36.77780 | -86.37388 | 20421 ft | 404 kts | 11° |
| 2026-05-06 20:12 | 36.80439 | -86.36064 | 20873 ft | 408 kts | 11° |
| 2026-05-06 20:12 | 36.83088 | -86.34747 | 21295 ft | 412 kts | 11° |
| 2026-05-06 20:12 | 36.85724 | -86.33434 | 21693 ft | 416 kts | 11° |
| 2026-05-06 20:13 | 36.88424 | -86.32091 | 22093 ft | 419 kts | 11° |
| 2026-05-06 20:13 | 36.91144 | -86.30736 | 22491 ft | 423 kts | 11° |
| 2026-05-06 20:13 | 36.93889 | -86.29367 | 22877 ft | 426 kts | 11° |
| 2026-05-06 20:13 | 36.96651 | -86.27988 | 23260 ft | 429 kts | 11° |
| 2026-05-06 20:14 | 36.99427 | -86.26598 | 23635 ft | 432 kts | 10° |
| 2026-05-06 20:14 | 37.02223 | -86.25199 | 24009 ft | 434 kts | 10° |
| 2026-05-06 20:14 | 37.05042 | -86.23788 | 24371 ft | 437 kts | 10° |
| 2026-05-06 20:14 | 37.07875 | -86.22368 | 24725 ft | 440 kts | 10° |
| 2026-05-06 20:15 | 37.10758 | -86.20922 | 25082 ft | 442 kts | 10° |
| 2026-05-06 20:15 | 37.13589 | -86.19501 | 25424 ft | 444 kts | 10° |
| 2026-05-06 20:15 | 37.16508 | -86.18034 | 25762 ft | 447 kts | 10° |
| 2026-05-06 20:15 | 37.19391 | -86.16584 | 26087 ft | 449 kts | 10° |
| 2026-05-06 20:16 | 37.22313 | -86.15114 | 26403 ft | 452 kts | 10° |
| 2026-05-06 20:16 | 37.25171 | -86.13529 | 26690 ft | 462 kts | 16° |
| 2026-05-06 20:16 | 37.28051 | -86.11663 | 26980 ft | 466 kts | 16° |
| 2026-05-06 20:16 | 37.30934 | -86.09796 | 27278 ft | 467 kts | 16° |
| 2026-05-06 20:17 | 37.33834 | -86.07918 | 27580 ft | 469 kts | 16° |
| 2026-05-06 20:17 | 37.36745 | -86.06031 | 27882 ft | 471 kts | 16° |
| 2026-05-06 20:17 | 37.39659 | -86.04142 | 28173 ft | 472 kts | 15° |
| 2026-05-06 20:17 | 37.42589 | -86.02241 | 28449 ft | 474 kts | 15° |
| 2026-05-06 20:18 | 37.45523 | -86.00337 | 28723 ft | 475 kts | 15° |
| 2026-05-06 20:18 | 37.48427 | -85.98451 | 28995 ft | 477 kts | 15° |
| 2026-05-06 20:18 | 37.51378 | -85.96532 | 29272 ft | 478 kts | 15° |
| 2026-05-06 20:18 | 37.54331 | -85.94609 | 29536 ft | 479 kts | 15° |
| 2026-05-06 20:19 | 37.57296 | -85.92679 | 29780 ft | 480 kts | 15° |
| 2026-05-06 20:19 | 37.60271 | -85.90740 | 30003 ft | 482 kts | 15° |
| 2026-05-06 20:19 | 37.63293 | -85.88768 | 30212 ft | 484 kts | 15° |
| 2026-05-06 20:19 | 37.66295 | -85.86808 | 30412 ft | 486 kts | 15° |
| 2026-05-06 20:20 | 37.69237 | -85.84884 | 30596 ft | 488 kts | 15° |
| 2026-05-06 20:20 | 37.72327 | -85.82862 | 30778 ft | 491 kts | 15° |
| 2026-05-06 20:20 | 37.75371 | -85.80867 | 30953 ft | 493 kts | 15° |
| 2026-05-06 20:20 | 37.78423 | -85.78864 | 31129 ft | 495 kts | 15° |
| 2026-05-06 20:21 | 37.81488 | -85.76850 | 31305 ft | 497 kts | 15° |
| 2026-05-06 20:21 | 37.84564 | -85.74827 | 31480 ft | 499 kts | 15° |
| 2026-05-06 20:21 | 37.87644 | -85.72798 | 31656 ft | 500 kts | 14° |
| 2026-05-06 20:21 | 37.90738 | -85.70754 | 31826 ft | 502 kts | 14° |
| 2026-05-06 20:22 | 37.93838 | -85.68707 | 32010 ft | 503 kts | 14° |
| 2026-05-06 20:22 | 37.96899 | -85.66681 | 32236 ft | 502 kts | 14° |
| 2026-05-06 20:22 | 37.99998 | -85.64637 | 32509 ft | 501 kts | 14° |
| 2026-05-06 20:22 | 38.03085 | -85.62599 | 32755 ft | 500 kts | 14° |
| 2026-05-06 20:23 | 38.06102 | -85.60576 | 32890 ft | 479 kts | 13° |
| 2026-05-06 20:23 | 38.09002 | -85.58613 | 32952 ft | 471 kts | 13° |
| 2026-05-06 20:23 | 38.14865 | -85.54684 | 33015 ft | 482 kts | 13° |
| 2026-05-06 20:24 | 38.20870 | -85.50647 | 33020 ft | 494 kts | 14° |
| 2026-05-06 20:24 | 38.27022 | -85.46485 | 33020 ft | 505 kts | 14° |
| 2026-05-06 20:25 | 38.32360 | -85.42854 | 33018 ft | 514 kts | 15° |
| 2026-05-06 20:25 | 38.38673 | -85.38544 | 33018 ft | 524 kts | 15° |
| 2026-05-06 20:26 | 38.45187 | -85.34081 | 33027 ft | 531 kts | 15° |
| 2026-05-06 20:26 | 38.51710 | -85.29593 | 33028 ft | 532 kts | 15° |
| 2026-05-06 20:27 | 38.58193 | -85.25111 | 33030 ft | 528 kts | 15° |
| 2026-05-06 20:27 | 38.64771 | -85.20570 | 33033 ft | 531 kts | 15° |
| 2026-05-06 20:28 | 38.71273 | -85.16078 | 33035 ft | 530 kts | 15° |
| 2026-05-06 20:28 | 38.77807 | -85.11553 | 33032 ft | 530 kts | 15° |
| 2026-05-06 20:29 | 38.84294 | -85.07055 | 33028 ft | 530 kts | 15° |
| 2026-05-06 20:29 | 38.90785 | -85.02544 | 33020 ft | 531 kts | 15° |
| 2026-05-06 20:30 | 39.00540 | -84.95748 | 33014 ft | 531 kts | 15° |
| 2026-05-06 20:31 | 39.07068 | -84.91187 | 33011 ft | 531 kts | 15° |
| 2026-05-06 20:31 | 39.13557 | -84.86642 | 33013 ft | 531 kts | 15° |
| 2026-05-06 20:32 | 39.20044 | -84.82091 | 33017 ft | 531 kts | 15° |
| 2026-05-06 20:32 | 39.26530 | -84.77529 | 33020 ft | 531 kts | 15° |
| 2026-05-06 20:33 | 39.33013 | -84.72960 | 33019 ft | 531 kts | 15° |
| 2026-05-06 20:33 | 39.39503 | -84.68376 | 33018 ft | 531 kts | 15° |
| 2026-05-06 20:34 | 39.45977 | -84.63795 | 33017 ft | 531 kts | 15° |
| 2026-05-06 20:34 | 39.52470 | -84.59189 | 33017 ft | 531 kts | 15° |
| 2026-05-06 20:35 | 39.58954 | -84.54581 | 33015 ft | 531 kts | 15° |
| 2026-05-06 20:35 | 39.65427 | -84.49969 | 33018 ft | 531 kts | 15° |
| 2026-05-06 20:36 | 39.71915 | -84.45338 | 33019 ft | 531 kts | 15° |
| 2026-05-06 20:36 | 39.78399 | -84.40700 | 33016 ft | 532 kts | 16° |
| 2026-05-06 20:37 | 39.84916 | -84.36026 | 33012 ft | 531 kts | 16° |
| 2026-05-06 20:37 | 39.91386 | -84.31353 | 33010 ft | 535 kts | 18° |
| 2026-05-06 20:37 | 39.94404 | -84.28332 | 33013 ft | 559 kts | 33° |
| 2026-05-06 20:38 | 39.97183 | -84.24853 | 33019 ft | 561 kts | 34° |
| 2026-05-06 20:38 | 40.02758 | -84.17683 | 33009 ft | 562 kts | 35° |
| 2026-05-06 20:39 | 40.08322 | -84.10485 | 33006 ft | 562 kts | 35° |
| 2026-05-06 20:39 | 40.13888 | -84.03323 | 33004 ft | 562 kts | 34° |
| 2026-05-06 20:40 | 40.19472 | -83.96169 | 33002 ft | 561 kts | 34° |
| 2026-05-06 20:40 | 40.25062 | -83.89016 | 32999 ft | 561 kts | 34° |
| 2026-05-06 20:41 | 40.30598 | -83.81922 | 32997 ft | 560 kts | 34° |
| 2026-05-06 20:41 | 40.36168 | -83.74771 | 32994 ft | 560 kts | 34° |
| 2026-05-06 20:42 | 40.41728 | -83.67613 | 32989 ft | 559 kts | 35° |
| 2026-05-06 20:42 | 40.47282 | -83.60445 | 32985 ft | 559 kts | 35° |
| 2026-05-06 20:43 | 40.52813 | -83.53290 | 32983 ft | 558 kts | 35° |
| 2026-05-06 20:43 | 40.58340 | -83.46121 | 32983 ft | 557 kts | 35° |
| 2026-05-06 20:44 | 40.63846 | -83.38962 | 32983 ft | 556 kts | 35° |
| 2026-05-06 20:44 | 40.69349 | -83.31776 | 32984 ft | 560 kts | 37° |
| 2026-05-06 20:45 | 40.74297 | -83.23694 | 32987 ft | 567 kts | 45° |
| 2026-05-06 20:45 | 40.79115 | -83.15458 | 32986 ft | 566 kts | 45° |
| 2026-05-06 20:46 | 40.83926 | -83.07224 | 32986 ft | 566 kts | 45° |
| 2026-05-06 20:46 | 40.88707 | -82.99040 | 32981 ft | 565 kts | 45° |
| 2026-05-06 20:47 | 40.93513 | -82.90803 | 32977 ft | 565 kts | 45° |
| 2026-05-06 20:47 | 40.98283 | -82.82605 | 32973 ft | 564 kts | 45° |
| 2026-05-06 20:48 | 41.03083 | -82.74327 | 32971 ft | 564 kts | 45° |
| 2026-05-06 20:48 | 41.07852 | -82.66077 | 32970 ft | 563 kts | 45° |
| 2026-05-06 20:49 | 41.12615 | -82.57810 | 32971 ft | 563 kts | 46° |
| 2026-05-06 20:49 | 41.16757 | -82.48915 | 32975 ft | 571 kts | 57° |
| 2026-05-06 20:50 | 41.20498 | -82.39601 | 32974 ft | 571 kts | 57° |
| 2026-05-06 20:50 | 41.24213 | -82.30285 | 32976 ft | 570 kts | 57° |
| 2026-05-06 20:51 | 41.27908 | -82.21032 | 32979 ft | 570 kts | 57° |
| 2026-05-06 20:51 | 41.31630 | -82.11727 | 32979 ft | 569 kts | 57° |
| 2026-05-06 20:52 | 41.34710 | -82.02035 | 32969 ft | 575 kts | 79° |
| 2026-05-06 20:52 | 41.35442 | -81.91449 | 32972 ft | 574 kts | 88° |
| 2026-05-06 20:53 | 41.35789 | -81.80820 | 32963 ft | 574 kts | 89° |
| 2026-05-06 20:53 | 41.36106 | -81.70200 | 32966 ft | 574 kts | 89° |
| 2026-05-06 20:54 | 41.36417 | -81.61254 | 32972 ft | 575 kts | 89° |
| 2026-05-06 20:54 | 41.36832 | -81.50657 | 32976 ft | 576 kts | 88° |
| 2026-05-06 20:55 | 41.37274 | -81.40022 | 32972 ft | 575 kts | 88° |
| 2026-05-06 20:55 | 41.37720 | -81.29377 | 32967 ft | 576 kts | 88° |
| 2026-05-06 20:56 | 41.38160 | -81.18790 | 32964 ft | 577 kts | 88° |
| 2026-05-06 20:56 | 41.38596 | -81.08063 | 32962 ft | 576 kts | 88° |
| 2026-05-06 20:57 | 41.39020 | -80.97396 | 32958 ft | 576 kts | 88° |
| 2026-05-06 20:57 | 41.39439 | -80.86576 | 32954 ft | 577 kts | 89° |
| 2026-05-06 20:58 | 41.39839 | -80.75987 | 32950 ft | 576 kts | 89° |
| 2026-05-06 20:58 | 41.40235 | -80.65235 | 32946 ft | 577 kts | 89° |
| 2026-05-06 20:59 | 41.40617 | -80.54576 | 32943 ft | 576 kts | 89° |
| 2026-05-06 20:59 | 41.40988 | -80.43974 | 32943 ft | 576 kts | 89° |
| 2026-05-06 21:00 | 41.41351 | -80.33312 | 32943 ft | 576 kts | 89° |
| 2026-05-06 21:00 | 41.41706 | -80.22574 | 32943 ft | 576 kts | 89° |
| 2026-05-06 21:01 | 41.42040 | -80.11912 | 32940 ft | 576 kts | 91° |
| 2026-05-06 21:01 | 41.41755 | -80.06617 | 32942 ft | 571 kts | 102° |
| 2026-05-06 21:01 | 41.41229 | -80.01299 | 32944 ft | 571 kts | 102° |
| 2026-05-06 21:02 | 41.40168 | -79.90815 | 32941 ft | 570 kts | 102° |
| 2026-05-06 21:02 | 41.39111 | -79.80353 | 32933 ft | 570 kts | 102° |
| 2026-05-06 21:03 | 41.38063 | -79.69886 | 32927 ft | 571 kts | 101° |
| 2026-05-06 21:03 | 41.37019 | -79.59405 | 32922 ft | 570 kts | 101° |
| 2026-05-06 21:04 | 41.35963 | -79.48869 | 32918 ft | 569 kts | 102° |
| 2026-05-06 21:04 | 41.34904 | -79.38422 | 32913 ft | 570 kts | 102° |
| 2026-05-06 21:05 | 41.33840 | -79.28048 | 32908 ft | 570 kts | 102° |
| 2026-05-06 21:05 | 41.32744 | -79.17472 | 32899 ft | 569 kts | 102° |
| 2026-05-06 21:06 | 41.31651 | -79.07034 | 32896 ft | 569 kts | 102° |
| 2026-05-06 21:06 | 41.30535 | -78.96472 | 32894 ft | 569 kts | 102° |
| 2026-05-06 21:07 | 41.29425 | -78.86060 | 32892 ft | 568 kts | 102° |
| 2026-05-06 21:07 | 41.28310 | -78.75690 | 32892 ft | 567 kts | 102° |
| 2026-05-06 21:08 | 41.27183 | -78.65307 | 32892 ft | 567 kts | 102° |
| 2026-05-06 21:08 | 41.26048 | -78.54929 | 32892 ft | 567 kts | 102° |
| 2026-05-06 21:09 | 41.24897 | -78.44505 | 32892 ft | 565 kts | 102° |
| 2026-05-06 21:09 | 41.23736 | -78.34077 | 32890 ft | 566 kts | 102° |
| 2026-05-06 21:10 | 41.22568 | -78.23678 | 32888 ft | 566 kts | 102° |
| 2026-05-06 21:10 | 41.21391 | -78.13351 | 32886 ft | 565 kts | 103° |
| 2026-05-06 21:11 | 41.20357 | -78.04792 | 32882 ft | 565 kts | 103° |
| 2026-05-06 21:11 | 41.18854 | -77.92771 | 32877 ft | 562 kts | 103° |
| 2026-05-06 21:12 | 41.17564 | -77.82572 | 32873 ft | 561 kts | 104° |
| 2026-05-06 21:12 | 41.16489 | -77.74137 | 32868 ft | 563 kts | 104° |
| 2026-05-06 21:13 | 41.14941 | -77.62041 | 32867 ft | 561 kts | 104° |
| 2026-05-06 21:13 | 41.13850 | -77.53560 | 32867 ft | 561 kts | 104° |
| 2026-05-06 21:14 | 41.12531 | -77.43364 | 32867 ft | 561 kts | 104° |
| 2026-05-06 21:14 | 41.11189 | -77.33083 | 32869 ft | 562 kts | 104° |
| 2026-05-06 21:15 | 41.09858 | -77.22937 | 32374 ft | 564 kts | 104° |
| 2026-05-06 21:15 | 41.09182 | -77.17824 | 31569 ft | 560 kts | 104° |
| 2026-05-06 21:15 | 41.08521 | -77.12720 | 30830 ft | 547 kts | 104° |
| 2026-05-06 21:15 | 41.07884 | -77.07792 | 30168 ft | 535 kts | 104° |
| 2026-05-06 21:16 | 41.07248 | -77.02953 | 29559 ft | 534 kts | 104° |
| 2026-05-06 21:16 | 41.06602 | -76.98155 | 28936 ft | 541 kts | 104° |
| 2026-05-06 21:16 | 41.05933 | -76.93231 | 28277 ft | 540 kts | 104° |
| 2026-05-06 21:16 | 41.05274 | -76.88377 | 27620 ft | 529 kts | 104° |
| 2026-05-06 21:17 | 41.04633 | -76.83643 | 26983 ft | 517 kts | 104° |
| 2026-05-06 21:17 | 41.04003 | -76.79001 | 26362 ft | 505 kts | 104° |
| 2026-05-06 21:17 | 41.03387 | -76.74465 | 25768 ft | 494 kts | 104° |
| 2026-05-06 21:17 | 41.02782 | -76.70025 | 25182 ft | 485 kts | 104° |
| 2026-05-06 21:18 | 41.02109 | -76.65689 | 24609 ft | 476 kts | 109° |
| 2026-05-06 21:18 | 41.01126 | -76.61537 | 24057 ft | 473 kts | 112° |
| 2026-05-06 21:18 | 41.00122 | -76.57384 | 23489 ft | 475 kts | 112° |
| 2026-05-06 21:18 | 40.99117 | -76.53228 | 22916 ft | 473 kts | 112° |
| 2026-05-06 21:19 | 40.98122 | -76.49105 | 22343 ft | 467 kts | 112° |
| 2026-05-06 21:19 | 40.97144 | -76.45042 | 21785 ft | 460 kts | 112° |
| 2026-05-06 21:19 | 40.96182 | -76.41042 | 21238 ft | 452 kts | 112° |
| 2026-05-06 21:19 | 40.95224 | -76.37058 | 20702 ft | 445 kts | 112° |
| 2026-05-06 21:20 | 40.94286 | -76.33168 | 20173 ft | 441 kts | 112° |
| 2026-05-06 21:20 | 40.93357 | -76.29316 | 19667 ft | 438 kts | 112° |
| 2026-05-06 21:20 | 40.92432 | -76.25491 | 19196 ft | 435 kts | 112° |
| 2026-05-06 21:20 | 40.91517 | -76.21709 | 18893 ft | 430 kts | 112° |
| 2026-05-06 21:21 | 40.90606 | -76.17950 | 18529 ft | 429 kts | 112° |
| 2026-05-06 21:21 | 40.89690 | -76.14186 | 18115 ft | 430 kts | 112° |
| 2026-05-06 21:21 | 40.88774 | -76.10429 | 17662 ft | 427 kts | 112° |
| 2026-05-06 21:21 | 40.87869 | -76.06721 | 17190 ft | 422 kts | 112° |
| 2026-05-06 21:22 | 40.86969 | -76.03042 | 16750 ft | 415 kts | 112° |
| 2026-05-06 21:22 | 40.86101 | -75.99492 | 16359 ft | 409 kts | 112° |
| 2026-05-06 21:22 | 40.85222 | -75.95918 | 15924 ft | 408 kts | 112° |
| 2026-05-06 21:22 | 40.84342 | -75.92346 | 15454 ft | 407 kts | 112° |
| 2026-05-06 21:23 | 40.83467 | -75.88798 | 14966 ft | 405 kts | 112° |
| 2026-05-06 21:23 | 40.82587 | -75.85240 | 14479 ft | 400 kts | 112° |
| 2026-05-06 21:23 | 40.81729 | -75.81768 | 14000 ft | 395 kts | 112° |
| 2026-05-06 21:23 | 40.80881 | -75.78339 | 13522 ft | 391 kts | 112° |
| 2026-05-06 21:24 | 40.80039 | -75.74939 | 13273 ft | 388 kts | 112° |
| 2026-05-06 21:24 | 40.79192 | -75.71546 | 13162 ft | 390 kts | 112° |
| 2026-05-06 21:24 | 40.78345 | -75.68152 | 13099 ft | 388 kts | 112° |
| 2026-05-06 21:24 | 40.77503 | -75.64777 | 13065 ft | 389 kts | 112° |
| 2026-05-06 21:25 | 40.76655 | -75.61379 | 13046 ft | 388 kts | 112° |
| 2026-05-06 21:25 | 40.75811 | -75.58002 | 13045 ft | 388 kts | 112° |
| 2026-05-06 21:25 | 40.74963 | -75.54615 | 13045 ft | 388 kts | 113° |
| 2026-05-06 21:25 | 40.74115 | -75.51234 | 13045 ft | 388 kts | 112° |
| 2026-05-06 21:26 | 40.73257 | -75.47810 | 13045 ft | 390 kts | 112° |
| 2026-05-06 21:26 | 40.72429 | -75.44393 | 13047 ft | 393 kts | 111° |
| 2026-05-06 21:26 | 40.71689 | -75.40926 | 13047 ft | 391 kts | 109° |
| 2026-05-06 21:26 | 40.70997 | -75.37471 | 13045 ft | 389 kts | 109° |
| 2026-05-06 21:27 | 40.70317 | -75.34023 | 13046 ft | 391 kts | 108° |
| 2026-05-06 21:27 | 40.69633 | -75.30540 | 13047 ft | 392 kts | 109° |
| 2026-05-06 21:27 | 40.68951 | -75.27064 | 13047 ft | 392 kts | 109° |
| 2026-05-06 21:27 | 40.68271 | -75.23632 | 13047 ft | 392 kts | 109° |
| 2026-05-06 21:28 | 40.67582 | -75.20149 | 13046 ft | 392 kts | 109° |
| 2026-05-06 21:28 | 40.66887 | -75.16676 | 12853 ft | 395 kts | 110° |
| 2026-05-06 21:28 | 40.65705 | -75.13423 | 11952 ft | 389 kts | 134° |
| 2026-05-06 21:28 | 40.63970 | -75.10928 | 12169 ft | 352 kts | 140° |
| 2026-05-06 21:29 | 40.62319 | -75.08611 | 11831 ft | 341 kts | 140° |
| 2026-05-06 21:29 | 40.60730 | -75.06371 | 11576 ft | 329 kts | 140° |
| 2026-05-06 21:29 | 40.59196 | -75.04205 | 11319 ft | 318 kts | 140° |
| 2026-05-06 21:29 | 40.57698 | -75.02087 | 10914 ft | 314 kts | 140° |
| 2026-05-06 21:30 | 40.56514 | -74.99663 | 10562 ft | 321 kts | 116° |
| 2026-05-06 21:30 | 40.55790 | -74.96886 | 10400 ft | 312 kts | 116° |
| 2026-05-06 21:30 | 40.55003 | -74.94139 | 10288 ft | 323 kts | 117° |
| 2026-05-06 21:30 | 40.54194 | -74.91452 | 10199 ft | 317 kts | 118° |
| 2026-05-06 21:31 | 40.53377 | -74.88771 | 10131 ft | 317 kts | 118° |
| 2026-05-06 21:31 | 40.52552 | -74.86075 | 10084 ft | 317 kts | 118° |
| 2026-05-06 21:31 | 40.51731 | -74.83391 | 10056 ft | 316 kts | 118° |
| 2026-05-06 21:31 | 40.50911 | -74.80706 | 10047 ft | 316 kts | 118° |
| 2026-05-06 21:32 | 40.50092 | -74.78028 | 10036 ft | 320 kts | 118° |
| 2026-05-06 21:32 | 40.48435 | -74.72598 | 10036 ft | 316 kts | 118° |
| 2026-05-06 21:32 | 40.47616 | -74.69896 | 10035 ft | 315 kts | 118° |
| 2026-05-06 21:33 | 40.46802 | -74.67214 | 10034 ft | 316 kts | 119° |
| 2026-05-06 21:33 | 40.45976 | -74.64497 | 10032 ft | 316 kts | 118° |
| 2026-05-06 21:33 | 40.45160 | -74.61823 | 10030 ft | 316 kts | 119° |
| 2026-05-06 21:33 | 40.44342 | -74.59129 | 10033 ft | 318 kts | 119° |
| 2026-05-06 21:34 | 40.43526 | -74.56455 | 10035 ft | 315 kts | 118° |
| 2026-05-06 21:34 | 40.43099 | -74.53624 | 10007 ft | 320 kts | 93° |
| 2026-05-06 21:34 | 40.43576 | -74.50785 | 9811 ft | 321 kts | 73° |
| 2026-05-06 21:34 | 40.44322 | -74.48015 | 9562 ft | 321 kts | 73° |
| 2026-05-06 21:35 | 40.44819 | -74.46182 | 9399 ft | 323 kts | 74° |
| 2026-05-06 21:35 | 40.45829 | -74.42474 | 9063 ft | 321 kts | 75° |
| 2026-05-06 21:35 | 40.46584 | -74.39687 | 8805 ft | 319 kts | 75° |
| 2026-05-06 21:35 | 40.47327 | -74.36941 | 8557 ft | 317 kts | 75° |
| 2026-05-06 21:36 | 40.48067 | -74.34216 | 8307 ft | 315 kts | 75° |
| 2026-05-06 21:36 | 40.48555 | -74.32421 | 8142 ft | 314 kts | 75° |
| 2026-05-06 21:36 | 40.49539 | -74.28783 | 7805 ft | 313 kts | 75° |
| 2026-05-06 21:36 | 40.50261 | -74.26116 | 7557 ft | 312 kts | 75° |
| 2026-05-06 21:37 | 40.50986 | -74.23429 | 7303 ft | 311 kts | 75° |
| 2026-05-06 21:37 | 40.51709 | -74.20752 | 6999 ft | 310 kts | 75° |
| 2026-05-06 21:37 | 40.52430 | -74.18083 | 6652 ft | 310 kts | 76° |
| 2026-05-06 21:37 | 40.53144 | -74.15426 | 6287 ft | 309 kts | 76° |
| 2026-05-06 21:38 | 40.53627 | -74.13618 | 6047 ft | 307 kts | 75° |
| 2026-05-06 21:38 | 40.54325 | -74.11010 | 5688 ft | 305 kts | 75° |
| 2026-05-06 21:38 | 40.55026 | -74.08394 | 5338 ft | 302 kts | 75° |
| 2026-05-06 21:38 | 40.55943 | -74.05945 | 5164 ft | 298 kts | 52° |
| 2026-05-06 21:39 | 40.57504 | -74.04253 | 5118 ft | 285 kts | 33° |
| 2026-05-06 21:39 | 40.59174 | -74.02821 | 5080 ft | 292 kts | 32° |
| 2026-05-06 21:39 | 40.60881 | -74.01360 | 5056 ft | 290 kts | 32° |
| 2026-05-06 21:39 | 40.62568 | -73.99920 | 5046 ft | 288 kts | 31° |
| 2026-05-06 21:40 | 40.64421 | -73.98926 | 5055 ft | 290 kts | 9° |
| 2026-05-06 21:40 | 40.66428 | -73.98559 | 5058 ft | 290 kts | 356° |
| 2026-05-06 21:40 | 40.68413 | -73.98599 | 4826 ft | 283 kts | 351° |
| 2026-05-06 21:40 | 40.70374 | -73.98800 | 4510 ft | 281 kts | 349° |
| 2026-05-06 21:41 | 40.72315 | -73.99059 | 4182 ft | 279 kts | 347° |
| 2026-05-06 21:41 | 40.74357 | -73.99374 | 3843 ft | 278 kts | 348° |
| 2026-05-06 21:41 | 40.76183 | -73.99675 | 3534 ft | 277 kts | 348° |
| 2026-05-06 21:41 | 40.78093 | -73.99999 | 3274 ft | 273 kts | 347° |
| 2026-05-06 21:42 | 40.79945 | -74.00291 | 3160 ft | 265 kts | 353° |
| 2026-05-06 21:42 | 40.81799 | -74.00181 | 3108 ft | 273 kts | 5° |
| 2026-05-06 21:42 | 40.83681 | -73.99696 | 3052 ft | 270 kts | 14° |
| 2026-05-06 21:42 | 40.85430 | -73.98844 | 3017 ft | 268 kts | 22° |
| 2026-05-06 21:43 | 40.87079 | -73.97829 | 3014 ft | 261 kts | 26° |
| 2026-05-06 21:43 | 40.88713 | -73.96741 | 3011 ft | 257 kts | 26° |
| 2026-05-06 21:43 | 40.90245 | -73.95699 | 2987 ft | 238 kts | 27° |
| 2026-05-06 21:43 | 40.91709 | -73.94694 | 2995 ft | 243 kts | 26° |
| 2026-05-06 21:44 | 40.93233 | -73.93641 | 3000 ft | 243 kts | 27° |
| 2026-05-06 21:44 | 40.94707 | -73.92621 | 2991 ft | 235 kts | 28° |
| 2026-05-06 21:44 | 40.96161 | -73.91620 | 3000 ft | 234 kts | 27° |
| 2026-05-06 21:44 | 40.97558 | -73.90653 | 3008 ft | 227 kts | 27° |
| 2026-05-06 21:45 | 40.98933 | -73.89583 | 2998 ft | 231 kts | 42° |
| 2026-05-06 21:45 | 40.99723 | -73.87845 | 2955 ft | 216 kts | 84° |
| 2026-05-06 21:45 | 40.99669 | -73.85908 | 3146 ft | 209 kts | 108° |
| 2026-05-06 21:45 | 40.99353 | -73.84096 | 3075 ft | 195 kts | 114° |
| 2026-05-06 21:46 | 40.98976 | -73.82394 | 3024 ft | 194 kts | 116° |
| 2026-05-06 21:46 | 40.98551 | -73.80661 | 3007 ft | 195 kts | 117° |
| 2026-05-06 21:46 | 40.98129 | -73.78977 | 2988 ft | 192 kts | 121° |
| 2026-05-06 21:46 | 40.97408 | -73.77596 | 2983 ft | 177 kts | 146° |
| 2026-05-06 21:47 | 40.96442 | -73.76591 | 3042 ft | 176 kts | 154° |
| 2026-05-06 21:47 | 40.95376 | -73.75842 | 2997 ft | 169 kts | 163° |
| 2026-05-06 21:47 | 40.94281 | -73.75258 | 3014 ft | 170 kts | 166° |
| 2026-05-06 21:47 | 40.93159 | -73.74889 | 2954 ft | 163 kts | 186° |
| 2026-05-06 21:48 | 40.92136 | -73.75380 | 2998 ft | 152 kts | 210° |
| 2026-05-06 21:48 | 40.91281 | -73.76128 | 3128 ft | 150 kts | 215° |
| 2026-05-06 21:48 | 40.90424 | -73.76944 | 2937 ft | 150 kts | 215° |
| 2026-05-06 21:48 | 40.89620 | -73.77716 | 2615 ft | 139 kts | 215° |
| 2026-05-06 21:49 | 40.88865 | -73.78405 | 2348 ft | 123 kts | 213° |
| 2026-05-06 21:49 | 40.88094 | -73.79085 | 2227 ft | 134 kts | 212° |
| 2026-05-06 21:49 | 40.87339 | -73.79759 | 2136 ft | 134 kts | 213° |
| 2026-05-06 21:49 | 40.86552 | -73.80425 | 1926 ft | 134 kts | 211° |
| 2026-05-06 21:50 | 40.85761 | -73.81091 | 1692 ft | 135 kts | 212° |
| 2026-05-06 21:50 | 40.84956 | -73.81756 | 1513 ft | 137 kts | 211° |
| 2026-05-06 21:50 | 40.84106 | -73.82457 | 1348 ft | 152 kts | 211° |
| 2026-05-06 21:50 | 40.83234 | -73.83186 | 1157 ft | 149 kts | 211° |
| 2026-05-06 21:51 | 40.82345 | -73.83921 | 919 ft | 148 kts | 211° |
| 2026-05-06 21:51 | 40.81488 | -73.84633 | 726 ft | 143 kts | 210° |
| 2026-05-06 21:51 | 40.80701 | -73.85283 | 485 ft | 126 kts | 210° |
| 2026-05-06 21:51 | 40.79967 | -73.85887 | 293 ft | 126 kts | 210° |
| 2026-05-06 21:52 | 40.79169 | -73.86542 | 219 ft | 139 kts | 211° |
| 2026-05-06 21:52 | 40.78377 | -73.87203 | 284 ft | 126 kts | 209° |
| 2026-05-06 21:52 | 40.77633 | -73.87809 | 657 ft | 129 kts | 208° |
| 2026-05-06 21:52 | 40.76823 | -73.88425 | 866 ft | 137 kts | 209° |
| 2026-05-06 21:53 | 40.75987 | -73.89079 | 1095 ft | 137 kts | 208° |
| 2026-05-06 21:53 | 40.75162 | -73.89721 | 1336 ft | 137 kts | 209° |
| 2026-05-06 21:53 | 40.74351 | -73.90359 | 1661 ft | 137 kts | 208° |
| 2026-05-06 21:53 | 40.73572 | -73.91005 | 2055 ft | 131 kts | 211° |
| 2026-05-06 21:54 | 40.72749 | -73.91647 | 2394 ft | 146 kts | 210° |
| 2026-05-06 21:54 | 40.71787 | -73.92368 | 2740 ft | 173 kts | 209° |
| 2026-05-06 21:54 | 40.70787 | -73.93118 | 2848 ft | 172 kts | 209° |
| 2026-05-06 21:54 | 40.69754 | -73.93871 | 2915 ft | 168 kts | 210° |
| 2026-05-06 21:55 | 40.68754 | -73.94692 | 2929 ft | 171 kts | 223° |
| 2026-05-06 21:55 | 40.68296 | -73.96162 | 2927 ft | 181 kts | 265° |
| 2026-05-06 21:55 | 40.68657 | -73.97805 | 3046 ft | 196 kts | 287° |
| 2026-05-06 21:55 | 40.69352 | -73.99401 | 3026 ft | 202 kts | 294° |
| 2026-05-06 21:56 | 40.70138 | -74.00917 | 3021 ft | 199 kts | 297° |
| 2026-05-06 21:56 | 40.70980 | -74.02391 | 3009 ft | 207 kts | 308° |
| 2026-05-06 21:56 | 40.72338 | -74.03241 | 2910 ft | 221 kts | 351° |
| 2026-05-06 21:56 | 40.73839 | -74.02904 | 2987 ft | 224 kts | 17° |
| 2026-05-06 21:57 | 40.75326 | -74.02107 | 3027 ft | 233 kts | 24° |
| 2026-05-06 21:57 | 40.76770 | -74.01186 | 3018 ft | 227 kts | 26° |
| 2026-05-06 21:57 | 40.78169 | -74.00243 | 3025 ft | 228 kts | 27° |
| 2026-05-06 21:57 | 40.79597 | -73.99263 | 3029 ft | 234 kts | 27° |
| 2026-05-06 21:58 | 40.81036 | -73.98268 | 3025 ft | 232 kts | 27° |
| 2026-05-06 21:58 | 40.82460 | -73.97285 | 3025 ft | 231 kts | 27° |
| 2026-05-06 21:58 | 40.83889 | -73.96296 | 3023 ft | 234 kts | 27° |
| 2026-05-06 21:58 | 40.85322 | -73.95305 | 3013 ft | 232 kts | 27° |
| 2026-05-06 21:59 | 40.86751 | -73.94326 | 3010 ft | 231 kts | 27° |
| 2026-05-06 21:59 | 40.88171 | -73.93349 | 3014 ft | 232 kts | 27° |
| 2026-05-06 21:59 | 40.89621 | -73.92349 | 3013 ft | 232 kts | 27° |
| 2026-05-06 21:59 | 40.91052 | -73.91362 | 3012 ft | 232 kts | 27° |
| 2026-05-06 22:00 | 40.92481 | -73.90376 | 3016 ft | 232 kts | 27° |
| 2026-05-06 22:00 | 40.93909 | -73.89386 | 3015 ft | 232 kts | 27° |
| 2026-05-06 22:00 | 40.95334 | -73.88390 | 3006 ft | 232 kts | 27° |
| 2026-05-06 22:00 | 40.96763 | -73.87404 | 3003 ft | 232 kts | 27° |
| 2026-05-06 22:01 | 40.98191 | -73.86414 | 3000 ft | 231 kts | 28° |
| 2026-05-06 22:01 | 40.99445 | -73.85120 | 2898 ft | 230 kts | 59° |
| 2026-05-06 22:01 | 40.99890 | -73.83237 | 2931 ft | 204 kts | 97° |
| 2026-05-06 22:01 | 40.99732 | -73.81455 | 2990 ft | 194 kts | 111° |
| 2026-05-06 22:02 | 40.99505 | -73.80286 | 3014 ft | 198 kts | 115° |
| 2026-05-06 22:02 | 40.99066 | -73.78582 | 2998 ft | 190 kts | 127° |
| 2026-05-06 22:02 | 40.98257 | -73.77327 | 3027 ft | 172 kts | 146° |
| 2026-05-06 22:02 | 40.97341 | -73.76214 | 3098 ft | 185 kts | 147° |
| 2026-05-06 22:03 | 40.96392 | -73.75088 | 3055 ft | 180 kts | 147° |
| 2026-05-06 22:03 | 40.95422 | -73.74108 | 2953 ft | 170 kts | 165° |
| 2026-05-06 22:03 | 40.94309 | -73.74093 | 2885 ft | 152 kts | 202° |
| 2026-05-06 22:03 | 40.93392 | -73.74677 | 3352 ft | 149 kts | 210° |
| 2026-05-06 22:04 | 40.92498 | -73.75390 | 3768 ft | 149 kts | 212° |
| 2026-05-06 22:04 | 40.91641 | -73.76125 | 3791 ft | 147 kts | 213° |
| 2026-05-06 22:04 | 40.90849 | -73.76800 | 3483 ft | 126 kts | 213° |
| 2026-05-06 22:04 | 40.90135 | -73.77424 | 3053 ft | 122 kts | 212° |
| 2026-05-06 22:05 | 40.89398 | -73.78049 | 2697 ft | 129 kts | 213° |
| 2026-05-06 22:05 | 40.88634 | -73.78686 | 2347 ft | 130 kts | 212° |
| 2026-05-06 22:05 | 40.87898 | -73.79307 | 2129 ft | 131 kts | 212° |
| 2026-05-06 22:05 | 40.87121 | -73.79955 | 1995 ft | 132 kts | 212° |
| 2026-05-06 22:06 | 40.86337 | -73.80608 | 1862 ft | 133 kts | 212° |
| 2026-05-06 22:06 | 40.85555 | -73.81271 | 1669 ft | 134 kts | 213° |
| 2026-05-06 22:06 | 40.84763 | -73.81920 | 1468 ft | 136 kts | 211° |
| 2026-05-06 22:06 | 40.83892 | -73.82637 | 1298 ft | 147 kts | 212° |
| 2026-05-06 22:07 | 40.83046 | -73.83342 | 1090 ft | 145 kts | 212° |
| 2026-05-06 22:07 | 40.82180 | -73.84054 | 885 ft | 145 kts | 211° |
| 2026-05-06 22:07 | 40.81327 | -73.84744 | 680 ft | 145 kts | 211° |
| 2026-05-06 22:07 | 40.80479 | -73.85449 | 515 ft | 143 kts | 212° |
| 2026-05-06 22:08 | 40.79628 | -73.86169 | 371 ft | 145 kts | 212° |
| 2026-05-06 22:08 | 40.78793 | -73.86858 | 123 ft | 142 kts | 212° |
| 2026-05-06 22:08 | 40.77987 | -73.87524 | 31 ft | 123 kts | 215° |
| 2026-05-06 22:08 | 40.77582 | -73.87866 | 30 ft | 8 kts | 213° |
| 2026-05-06 22:09 | 40.77526 | -73.87895 | 30 ft | 10 kts | 165° |
| 2026-05-06 22:09 | 40.77491 | -73.87810 | 30 ft | 13 kts | 90° |
| 2026-05-06 22:09 | 40.77555 | -73.87729 | 30 ft | 15 kts | 30° |
| 2026-05-06 22:09 | 40.77656 | -73.87643 | 30 ft | 18 kts | 33° |
| 2026-05-06 22:10 | 40.77744 | -73.87516 | 30 ft | 20 kts | 71° |
| 2026-05-06 22:10 | 40.77786 | -73.87326 | 30 ft | 22 kts | 90° |
| 2026-05-06 22:10 | 40.77763 | -73.87116 | 30 ft | 24 kts | 117° |
| 2026-05-06 22:10 | 40.77676 | -73.86934 | 30 ft | 26 kts | 121° |
| 2026-05-06 22:11 | 40.77578 | -73.86725 | 30 ft | 27 kts | 123° |
| 2026-05-06 22:11 | 40.77474 | -73.86509 | 30 ft | 29 kts | 122° |
| 2026-05-06 22:11 | 40.77362 | -73.86275 | 30 ft | 31 kts | 123° |
| 2026-05-06 22:11 | 40.77279 | -73.86099 | 30 ft | 10 kts | 123° |
| 2026-05-06 22:12 | 40.77217 | -73.86093 | 30 ft | 11 kts | 213° |
| 2026-05-06 22:12 | 40.77152 | -73.86120 | 30 ft | 10 kts | 145° |
| 2026-05-06 22:12 | 40.77090 | -73.86147 | 30 ft | 11 kts | 217° |
| 2026-05-06 22:12 | 40.77028 | -73.86197 | 30 ft | 10 kts | 181° |
| 2026-05-06 22:13 | 40.76997 | -73.86190 | 30 ft | 0 kts | 162° |